sensor_id;sensor_type;location;lat;lon;timestamp;pressure;altitude;pressure_sealevel;temperature;humidity
64886;BME280;51514;52.206;5.114;2024-03-08T00:00:45;102009.75;;;4.28;86.78
64886;BME280;51514;52.206;5.114;2024-03-08T00:03:11;101996.66;;;4.24;86.78
64886;BME280;51514;52.206;5.114;2024-03-08T00:05:36;101995.81;;;4.23;86.66
64886;BME280;51514;52.206;5.114;2024-03-08T00:08:05;101999.88;;;4.15;86.63
64886;BME280;51514;52.206;5.114;2024-03-08T00:10:34;101998.69;;;4.04;87.22
64886;BME280;51514;52.206;5.114;2024-03-08T00:12:59;101997.22;;;4.15;87.05
64886;BME280;51514;52.206;5.114;2024-03-08T00:15:25;101991.09;;;4.13;86.92
64886;BME280;51514;52.206;5.114;2024-03-08T00:17:50;101993.53;;;4.01;86.67
64886;BME280;51514;52.206;5.114;2024-03-08T00:20:16;101997.50;;;4.10;86.32
64886;BME280;51514;52.206;5.114;2024-03-08T00:22:43;101985.25;;;4.06;86.66
64886;BME280;51514;52.206;5.114;2024-03-08T00:25:08;101985.03;;;3.95;87.25
64886;BME280;51514;52.206;5.114;2024-03-08T00:27:34;101984.94;;;3.96;87.06
64886;BME280;51514;52.206;5.114;2024-03-08T00:30:00;101983.22;;;3.80;87.64
64886;BME280;51514;52.206;5.114;2024-03-08T00:32:26;101980.63;;;3.94;87.01
64886;BME280;51514;52.206;5.114;2024-03-08T00:34:53;101987.19;;;3.73;87.27
64886;BME280;51514;52.206;5.114;2024-03-08T00:37:22;101981.25;;;3.83;86.45
64886;BME280;51514;52.206;5.114;2024-03-08T00:39:51;101965.84;;;3.88;86.94
64886;BME280;51514;52.206;5.114;2024-03-08T00:42:19;101968.00;;;3.82;86.47
64886;BME280;51514;52.206;5.114;2024-03-08T00:44:45;101978.56;;;3.99;86.17
64886;BME280;51514;52.206;5.114;2024-03-08T00:47:11;101969.78;;;3.97;85.80
64886;BME280;51514;52.206;5.114;2024-03-08T00:49:37;101972.53;;;3.95;85.95
64886;BME280;51514;52.206;5.114;2024-03-08T00:52:06;101975.03;;;3.98;85.57
64886;BME280;51514;52.206;5.114;2024-03-08T00:54:35;101967.22;;;3.95;85.33
64886;BME280;51514;52.206;5.114;2024-03-08T00:57:04;101961.78;;;3.97;85.00
64886;BME280;51514;52.206;5.114;2024-03-08T00:59:29;101956.28;;;3.84;85.64
64886;BME280;51514;52.206;5.114;2024-03-08T01:01:58;101946.94;;;3.77;86.29
64886;BME280;51514;52.206;5.114;2024-03-08T01:04:24;101940.28;;;3.84;85.47
64886;BME280;51514;52.206;5.114;2024-03-08T01:06:51;101954.00;;;3.78;85.79
64886;BME280;51514;52.206;5.114;2024-03-08T01:09:16;101942.09;;;3.68;86.04
64886;BME280;51514;52.206;5.114;2024-03-08T01:11:42;101939.69;;;3.79;85.61
64886;BME280;51514;52.206;5.114;2024-03-08T01:14:08;101949.16;;;3.69;86.08
64886;BME280;51514;52.206;5.114;2024-03-08T01:16:33;101938.25;;;3.74;85.42
64886;BME280;51514;52.206;5.114;2024-03-08T01:18:59;101933.59;;;3.77;85.26
64886;BME280;51514;52.206;5.114;2024-03-08T01:21:24;101917.34;;;3.66;85.56
64886;BME280;51514;52.206;5.114;2024-03-08T01:23:49;101913.53;;;3.70;85.82
64886;BME280;51514;52.206;5.114;2024-03-08T01:26:15;101913.53;;;3.70;84.94
64886;BME280;51514;52.206;5.114;2024-03-08T01:28:40;101910.72;;;3.73;85.15
64886;BME280;51514;52.206;5.114;2024-03-08T01:31:05;101917.59;;;3.61;85.49
64886;BME280;51514;52.206;5.114;2024-03-08T01:33:31;101905.63;;;3.68;85.05
64886;BME280;51514;52.206;5.114;2024-03-08T01:35:57;101905.22;;;3.60;85.76
64886;BME280;51514;52.206;5.114;2024-03-08T01:38:22;101902.06;;;3.54;85.70
64886;BME280;51514;52.206;5.114;2024-03-08T01:40:50;101893.88;;;3.41;86.03
64886;BME280;51514;52.206;5.114;2024-03-08T01:45:41;101901.53;;;3.47;85.91
64886;BME280;51514;52.206;5.114;2024-03-08T01:48:07;101890.59;;;3.52;85.50
64886;BME280;51514;52.206;5.114;2024-03-08T01:50:32;101893.13;;;3.39;85.58
64886;BME280;51514;52.206;5.114;2024-03-08T01:52:57;101881.91;;;3.48;85.08
64886;BME280;51514;52.206;5.114;2024-03-08T01:55:25;101888.31;;;3.46;85.16
64886;BME280;51514;52.206;5.114;2024-03-08T01:57:51;101883.81;;;3.46;85.01
64886;BME280;51514;52.206;5.114;2024-03-08T02:00:17;101874.19;;;3.44;84.90
64886;BME280;51514;52.206;5.114;2024-03-08T02:02:46;101881.41;;;3.42;85.09
64886;BME280;51514;52.206;5.114;2024-03-08T02:05:12;101881.06;;;3.48;84.23
64886;BME280;51514;52.206;5.114;2024-03-08T02:07:41;101874.97;;;3.46;83.97
64886;BME280;51514;52.206;5.114;2024-03-08T02:10:09;101875.81;;;3.46;83.75
64886;BME280;51514;52.206;5.114;2024-03-08T02:12:34;101874.78;;;3.49;83.73
64886;BME280;51514;52.206;5.114;2024-03-08T02:15:00;101874.63;;;3.52;83.46
64886;BME280;51514;52.206;5.114;2024-03-08T02:17:25;101869.88;;;3.57;83.14
64886;BME280;51514;52.206;5.114;2024-03-08T02:19:51;101868.59;;;3.48;82.85
64886;BME280;51514;52.206;5.114;2024-03-08T02:22:16;101863.16;;;3.50;82.85
64886;BME280;51514;52.206;5.114;2024-03-08T02:24:42;101861.28;;;3.52;83.24
64886;BME280;51514;52.206;5.114;2024-03-08T02:27:07;101858.53;;;3.53;82.90
64886;BME280;51514;52.206;5.114;2024-03-08T02:29:33;101854.06;;;3.54;82.83
64886;BME280;51514;52.206;5.114;2024-03-08T02:31:59;101849.69;;;3.53;82.79
64886;BME280;51514;52.206;5.114;2024-03-08T02:34:24;101844.50;;;3.50;82.64
64886;BME280;51514;52.206;5.114;2024-03-08T02:36:50;101845.13;;;3.39;82.56
64886;BME280;51514;52.206;5.114;2024-03-08T02:39:16;101840.09;;;3.35;83.25
64886;BME280;51514;52.206;5.114;2024-03-08T02:41:42;101836.44;;;3.36;82.48
64886;BME280;51514;52.206;5.114;2024-03-08T02:44:07;101835.31;;;3.40;82.40
64886;BME280;51514;52.206;5.114;2024-03-08T02:46:33;101833.78;;;3.36;82.96
64886;BME280;51514;52.206;5.114;2024-03-08T02:48:59;101830.09;;;3.38;82.62
64886;BME280;51514;52.206;5.114;2024-03-08T02:51:25;101830.16;;;3.37;82.51
64886;BME280;51514;52.206;5.114;2024-03-08T02:53:51;101826.22;;;3.28;83.22
64886;BME280;51514;52.206;5.114;2024-03-08T02:56:17;101828.81;;;3.29;82.75
64886;BME280;51514;52.206;5.114;2024-03-08T02:58:43;101810.78;;;3.19;83.28
64886;BME280;51514;52.206;5.114;2024-03-08T03:01:08;101815.06;;;3.21;82.50
64886;BME280;51514;52.206;5.114;2024-03-08T03:03:35;101816.25;;;3.16;82.78
64886;BME280;51514;52.206;5.114;2024-03-08T03:06:01;101815.84;;;3.08;83.30
64886;BME280;51514;52.206;5.114;2024-03-08T03:08:26;101806.41;;;3.02;83.75
64886;BME280;51514;52.206;5.114;2024-03-08T03:10:51;101813.19;;;3.08;83.10
64886;BME280;51514;52.206;5.114;2024-03-08T03:13:17;101801.66;;;3.07;83.54
64886;BME280;51514;52.206;5.114;2024-03-08T03:15:46;101814.03;;;3.08;82.93
64886;BME280;51514;52.206;5.114;2024-03-08T03:18:11;101802.69;;;3.05;83.11
64886;BME280;51514;52.206;5.114;2024-03-08T03:20:36;101804.78;;;3.00;83.61
64886;BME280;51514;52.206;5.114;2024-03-08T03:23:10;101799.63;;;2.97;83.51
64886;BME280;51514;52.206;5.114;2024-03-08T03:25:39;101806.75;;;2.96;84.16
64886;BME280;51514;52.206;5.114;2024-03-08T03:28:06;101803.84;;;3.01;83.33
64886;BME280;51514;52.206;5.114;2024-03-08T03:30:32;101795.84;;;3.01;83.40
64886;BME280;51514;52.206;5.114;2024-03-08T03:33:01;101793.09;;;3.02;83.13
64886;BME280;51514;52.206;5.114;2024-03-08T03:35:30;101791.47;;;3.00;82.59
64886;BME280;51514;52.206;5.114;2024-03-08T03:37:55;101787.53;;;2.91;83.75
64886;BME280;51514;52.206;5.114;2024-03-08T03:40:35;101793.44;;;2.96;82.92
64886;BME280;51514;52.206;5.114;2024-03-08T03:43:02;101779.69;;;2.88;83.42
64886;BME280;51514;52.206;5.114;2024-03-08T03:45:31;101789.56;;;2.86;83.72
64886;BME280;51514;52.206;5.114;2024-03-08T03:48:01;101780.03;;;2.82;83.72
64886;BME280;51514;52.206;5.114;2024-03-08T03:50:27;101775.84;;;2.78;83.72
64886;BME280;51514;52.206;5.114;2024-03-08T03:52:52;101773.69;;;2.69;84.24
64886;BME280;51514;52.206;5.114;2024-03-08T03:55:18;101769.81;;;2.74;83.57
64886;BME280;51514;52.206;5.114;2024-03-08T03:57:44;101770.09;;;2.70;83.95
64886;BME280;51514;52.206;5.114;2024-03-08T04:00:11;101776.16;;;2.72;83.60
64886;BME280;51514;52.206;5.114;2024-03-08T04:02:37;101770.09;;;2.70;84.05
64886;BME280;51514;52.206;5.114;2024-03-08T04:05:07;101771.78;;;2.71;83.44
64886;BME280;51514;52.206;5.114;2024-03-08T04:07:33;101760.28;;;2.70;83.56
64886;BME280;51514;52.206;5.114;2024-03-08T04:10:00;101769.47;;;2.65;83.07
64886;BME280;51514;52.206;5.114;2024-03-08T04:12:25;101762.69;;;2.75;83.50
64886;BME280;51514;52.206;5.114;2024-03-08T04:14:51;101764.41;;;2.76;82.99
64886;BME280;51514;52.206;5.114;2024-03-08T04:17:18;101761.75;;;2.76;82.37
64886;BME280;51514;52.206;5.114;2024-03-08T04:19:43;101762.19;;;2.68;82.76
64886;BME280;51514;52.206;5.114;2024-03-08T04:22:09;101760.53;;;2.66;82.72
64886;BME280;51514;52.206;5.114;2024-03-08T04:24:34;101756.31;;;2.62;83.22
64886;BME280;51514;52.206;5.114;2024-03-08T04:27:00;101755.22;;;2.66;82.85
64886;BME280;51514;52.206;5.114;2024-03-08T04:29:25;101754.34;;;2.65;82.87
64886;BME280;51514;52.206;5.114;2024-03-08T04:31:52;101753.94;;;2.57;83.39
64886;BME280;51514;52.206;5.114;2024-03-08T04:34:20;101749.28;;;2.61;82.81
64886;BME280;51514;52.206;5.114;2024-03-08T04:36:46;101751.78;;;2.64;83.09
64886;BME280;51514;52.206;5.114;2024-03-08T04:39:11;101748.94;;;2.67;82.74
64886;BME280;51514;52.206;5.114;2024-03-08T04:41:38;101746.28;;;2.67;82.09
64886;BME280;51514;52.206;5.114;2024-03-08T04:44:04;101750.13;;;2.61;82.32
64886;BME280;51514;52.206;5.114;2024-03-08T04:46:30;101748.25;;;2.63;81.71
64886;BME280;51514;52.206;5.114;2024-03-08T04:48:55;101747.22;;;2.66;82.38
64886;BME280;51514;52.206;5.114;2024-03-08T04:51:20;101733.28;;;2.61;81.80
64886;BME280;51514;52.206;5.114;2024-03-08T04:53:46;101735.97;;;2.61;81.74
64886;BME280;51514;52.206;5.114;2024-03-08T04:56:11;101742.94;;;2.63;81.53
64886;BME280;51514;52.206;5.114;2024-03-08T04:58:36;101739.25;;;2.66;81.32
64886;BME280;51514;52.206;5.114;2024-03-08T05:01:02;101736.56;;;2.66;81.18
64886;BME280;51514;52.206;5.114;2024-03-08T05:03:27;101740.88;;;2.52;81.63
64886;BME280;51514;52.206;5.114;2024-03-08T05:05:53;101726.69;;;2.52;81.86
64886;BME280;51514;52.206;5.114;2024-03-08T05:08:19;101732.28;;;2.47;82.01
64886;BME280;51514;52.206;5.114;2024-03-08T05:10:44;101728.34;;;2.54;81.05
64886;BME280;51514;52.206;5.114;2024-03-08T05:13:10;101724.88;;;2.52;81.51
64886;BME280;51514;52.206;5.114;2024-03-08T05:15:35;101719.72;;;2.49;80.91
64886;BME280;51514;52.206;5.114;2024-03-08T05:18:01;101721.44;;;2.50;81.15
64886;BME280;51514;52.206;5.114;2024-03-08T05:20:27;101720.69;;;2.48;80.79
64886;BME280;51514;52.206;5.114;2024-03-08T05:22:52;101726.63;;;2.53;80.45
64886;BME280;51514;52.206;5.114;2024-03-08T05:25:17;101719.25;;;2.59;80.47
64886;BME280;51514;52.206;5.114;2024-03-08T05:27:43;101715.28;;;2.66;79.99
64886;BME280;51514;52.206;5.114;2024-03-08T05:30:08;101715.19;;;2.67;80.30
64886;BME280;51514;52.206;5.114;2024-03-08T05:32:42;101717.00;;;2.67;79.58
64886;BME280;51514;52.206;5.114;2024-03-08T05:35:11;101712.38;;;2.70;79.60
64886;BME280;51514;52.206;5.114;2024-03-08T05:37:40;101716.84;;;2.70;80.00
64886;BME280;51514;52.206;5.114;2024-03-08T05:40:06;101710.72;;;2.68;79.50
64886;BME280;51514;52.206;5.114;2024-03-08T05:42:35;101714.06;;;2.71;79.09
64886;BME280;51514;52.206;5.114;2024-03-08T05:45:00;101710.72;;;2.68;78.79
64886;BME280;51514;52.206;5.114;2024-03-08T05:47:25;101710.44;;;2.72;79.07
64886;BME280;51514;52.206;5.114;2024-03-08T05:49:51;101705.56;;;2.65;78.53
64886;BME280;51514;52.206;5.114;2024-03-08T05:52:18;101708.31;;;2.63;78.68
64886;BME280;51514;52.206;5.114;2024-03-08T05:54:44;101707.22;;;2.67;79.13
64886;BME280;51514;52.206;5.114;2024-03-08T05:57:10;101704.47;;;2.69;79.01
64886;BME280;51514;52.206;5.114;2024-03-08T05:59:36;101700.50;;;2.76;78.55
64886;BME280;51514;52.206;5.114;2024-03-08T06:02:01;101701.72;;;2.70;78.60
64886;BME280;51514;52.206;5.114;2024-03-08T06:04:27;101710.19;;;2.77;77.75
64886;BME280;51514;52.206;5.114;2024-03-08T06:06:52;101696.09;;;2.75;78.04
64886;BME280;51514;52.206;5.114;2024-03-08T06:09:20;101694.13;;;2.78;77.54
64886;BME280;51514;52.206;5.114;2024-03-08T06:11:48;101688.72;;;2.80;77.99
64886;BME280;51514;52.206;5.114;2024-03-08T06:14:13;101687.88;;;2.79;77.45
64886;BME280;51514;52.206;5.114;2024-03-08T06:16:41;101687.97;;;2.78;77.62
64886;BME280;51514;52.206;5.114;2024-03-08T06:19:07;101685.22;;;2.79;77.76
64886;BME280;51514;52.206;5.114;2024-03-08T06:21:33;101692.34;;;2.79;78.10
64886;BME280;51514;52.206;5.114;2024-03-08T06:23:58;101690.22;;;2.70;77.86
64886;BME280;51514;52.206;5.114;2024-03-08T06:26:24;101694.13;;;2.78;77.43
64886;BME280;51514;52.206;5.114;2024-03-08T06:28:50;101687.09;;;2.77;77.56
64886;BME280;51514;52.206;5.114;2024-03-08T06:31:16;101689.69;;;2.79;77.84
64886;BME280;51514;52.206;5.114;2024-03-08T06:33:41;101688.91;;;2.77;77.57
64886;BME280;51514;52.206;5.114;2024-03-08T06:36:09;101688.13;;;2.75;77.42
64886;BME280;51514;52.206;5.114;2024-03-08T06:38:34;101680.91;;;2.77;78.12
64886;BME280;51514;52.206;5.114;2024-03-08T06:40:59;101682.47;;;2.81;77.71
64886;BME280;51514;52.206;5.114;2024-03-08T06:43:28;101680.53;;;2.83;77.76
64886;BME280;51514;52.206;5.114;2024-03-08T06:45:59;101680.03;;;2.92;77.04
64886;BME280;51514;52.206;5.114;2024-03-08T06:48:24;101684.22;;;2.96;76.71
64886;BME280;51514;52.206;5.114;2024-03-08T06:50:50;101677.56;;;3.03;76.27
64886;BME280;51514;52.206;5.114;2024-03-08T06:53:15;101675.50;;;3.08;76.21
64886;BME280;51514;52.206;5.114;2024-03-08T06:55:44;101676.69;;;3.18;76.38
64886;BME280;51514;52.206;5.114;2024-03-08T06:58:09;101671.19;;;3.21;75.45
64886;BME280;51514;52.206;5.114;2024-03-08T07:00:36;101670.25;;;3.37;75.37
64886;BME280;51514;52.206;5.114;2024-03-08T07:03:01;101660.00;;;3.45;75.04
64886;BME280;51514;52.206;5.114;2024-03-08T07:05:28;101664.94;;;3.51;74.49
64886;BME280;51514;52.206;5.114;2024-03-08T07:07:53;101665.53;;;3.56;73.74
64886;BME280;51514;52.206;5.114;2024-03-08T07:10:20;101658.47;;;3.69;73.64
64886;BME280;51514;52.206;5.114;2024-03-08T07:12:46;101660.94;;;3.72;73.02
64886;BME280;51514;52.206;5.114;2024-03-08T07:15:12;101660.78;;;3.89;72.65
64886;BME280;51514;52.206;5.114;2024-03-08T07:17:41;101666.47;;;3.97;71.77
64886;BME280;51514;52.206;5.114;2024-03-08T07:20:07;101660.94;;;4.00;71.67
64886;BME280;51514;52.206;5.114;2024-03-08T07:22:36;101661.69;;;4.17;70.92
64886;BME280;51514;52.206;5.114;2024-03-08T07:25:05;101661.28;;;4.23;70.77
64886;BME280;51514;52.206;5.114;2024-03-08T07:27:33;101646.50;;;4.31;70.17
64886;BME280;51514;52.206;5.114;2024-03-08T07:29:59;101656.28;;;4.45;69.70
64886;BME280;51514;52.206;5.114;2024-03-08T07:32:26;101641.81;;;4.35;69.28
64886;BME280;51514;52.206;5.114;2024-03-08T07:34:53;101650.75;;;4.48;69.59
64886;BME280;51514;52.206;5.114;2024-03-08T07:37:20;101647.13;;;4.49;69.26
64886;BME280;51514;52.206;5.114;2024-03-08T07:39:46;101642.94;;;4.72;69.05
64886;BME280;51514;52.206;5.114;2024-03-08T07:42:11;101636.47;;;4.89;67.75
64886;BME280;51514;52.206;5.114;2024-03-08T07:44:37;101639.72;;;5.06;67.02
64886;BME280;51514;52.206;5.114;2024-03-08T07:47:03;101636.22;;;5.19;66.56
64886;BME280;51514;52.206;5.114;2024-03-08T07:49:29;101638.81;;;5.45;65.94
64886;BME280;51514;52.206;5.114;2024-03-08T07:51:55;101628.63;;;5.76;65.68
64886;BME280;51514;52.206;5.114;2024-03-08T07:54:20;101632.66;;;6.07;63.52
64886;BME280;51514;52.206;5.114;2024-03-08T07:56:45;101626.09;;;6.23;62.70
64886;BME280;51514;52.206;5.114;2024-03-08T07:59:12;101628.69;;;6.25;60.91
64886;BME280;51514;52.206;5.114;2024-03-08T08:01:37;101623.50;;;6.35;60.34
64886;BME280;51514;52.206;5.114;2024-03-08T08:04:03;101619.88;;;6.59;59.84
64886;BME280;51514;52.206;5.114;2024-03-08T08:06:28;101612.16;;;6.55;59.92
64886;BME280;51514;52.206;5.114;2024-03-08T08:08:57;101616.66;;;6.54;60.25
64886;BME280;51514;52.206;5.114;2024-03-08T08:11:22;101614.19;;;6.75;60.45
64886;BME280;51514;52.206;5.114;2024-03-08T08:13:47;101611.22;;;6.91;58.46
64886;BME280;51514;52.206;5.114;2024-03-08T08:16:13;101602.06;;;6.93;58.52
64886;BME280;51514;52.206;5.114;2024-03-08T08:18:38;101601.66;;;7.11;58.64
64886;BME280;51514;52.206;5.114;2024-03-08T08:21:05;101595.22;;;7.13;57.63
64886;BME280;51514;52.206;5.114;2024-03-08T08:23:32;101593.16;;;7.39;56.78
64886;BME280;51514;52.206;5.114;2024-03-08T08:25:58;101593.44;;;7.81;57.05
64886;BME280;51514;52.206;5.114;2024-03-08T08:28:24;101586.59;;;7.88;56.00
64886;BME280;51514;52.206;5.114;2024-03-08T08:30:49;101593.44;;;7.69;55.25
64886;BME280;51514;52.206;5.114;2024-03-08T08:33:15;101577.19;;;7.82;55.38
64886;BME280;51514;52.206;5.114;2024-03-08T08:35:41;101587.31;;;7.90;55.22
64886;BME280;51514;52.206;5.114;2024-03-08T08:38:06;101577.81;;;7.86;55.10
64886;BME280;51514;52.206;5.114;2024-03-08T08:40:35;101585.13;;;7.95;54.97
64886;BME280;51514;52.206;5.114;2024-03-08T08:43:02;101568.66;;;7.99;54.88
64886;BME280;51514;52.206;5.114;2024-03-08T08:45:30;101570.09;;;8.03;54.85
64886;BME280;51514;52.206;5.114;2024-03-08T08:47:55;101575.00;;;8.10;54.83
64886;BME280;51514;52.206;5.114;2024-03-08T08:50:24;101562.25;;;8.12;53.95
64886;BME280;51514;52.206;5.114;2024-03-08T08:52:49;101564.97;;;8.00;55.02
64886;BME280;51514;52.206;5.114;2024-03-08T08:55:15;101567.78;;;8.10;54.38
64886;BME280;51514;52.206;5.114;2024-03-08T08:57:41;101556.16;;;8.21;54.73
64886;BME280;51514;52.206;5.114;2024-03-08T09:00:07;101570.47;;;8.10;53.47
64886;BME280;51514;52.206;5.114;2024-03-08T09:02:35;101561.91;;;8.05;53.69
64886;BME280;51514;52.206;5.114;2024-03-08T09:05:00;101563.13;;;8.01;54.23
64886;BME280;51514;52.206;5.114;2024-03-08T09:07:29;101558.38;;;8.04;54.61
64886;BME280;51514;52.206;5.114;2024-03-08T09:09:54;101555.06;;;8.12;54.58
64886;BME280;51514;52.206;5.114;2024-03-08T09:12:23;101553.56;;;8.30;54.50
64886;BME280;51514;52.206;5.114;2024-03-08T09:14:49;101541.59;;;8.66;54.45
64886;BME280;51514;52.206;5.114;2024-03-08T09:17:15;101538.91;;;8.87;52.95
64886;BME280;51514;52.206;5.114;2024-03-08T09:19:45;101531.19;;;9.14;53.09
64886;BME280;51514;52.206;5.114;2024-03-08T09:22:10;101532.34;;;9.22;52.61
64886;BME280;51514;52.206;5.114;2024-03-08T09:24:36;101523.03;;;9.56;52.71
64886;BME280;51514;52.206;5.114;2024-03-08T09:27:01;101530.38;;;9.54;50.80
64886;BME280;51514;52.206;5.114;2024-03-08T09:29:27;101522.56;;;9.81;50.61
64886;BME280;51514;52.206;5.114;2024-03-08T09:31:52;101527.22;;;9.79;49.99
64886;BME280;51514;52.206;5.114;2024-03-08T09:34:17;101513.75;;;9.79;50.27
64886;BME280;51514;52.206;5.114;2024-03-08T09:36:44;101511.06;;;9.79;50.59
64886;BME280;51514;52.206;5.114;2024-03-08T09:39:09;101508.22;;;9.81;50.29
64886;BME280;51514;52.206;5.114;2024-03-08T09:41:35;101503.66;;;9.62;50.44
64886;BME280;51514;52.206;5.114;2024-03-08T09:44:00;101497.53;;;9.60;49.79
64886;BME280;51514;52.206;5.114;2024-03-08T09:46:26;101493.31;;;9.67;50.10
64886;BME280;51514;52.206;5.114;2024-03-08T09:48:55;101494.19;;;9.77;50.01
64886;BME280;51514;52.206;5.114;2024-03-08T09:51:28;101482.88;;;9.83;49.65
64886;BME280;51514;52.206;5.114;2024-03-08T09:53:54;101475.50;;;9.95;49.87
64886;BME280;51514;52.206;5.114;2024-03-08T09:56:21;101471.59;;;10.18;49.47
64886;BME280;51514;52.206;5.114;2024-03-08T09:58:48;101471.03;;;10.53;48.93
64886;BME280;51514;52.206;5.114;2024-03-08T10:01:40;101464.34;;;10.67;48.32
64886;BME280;51514;52.206;5.114;2024-03-08T10:04:08;101456.97;;;10.69;48.10
64886;BME280;51514;52.206;5.114;2024-03-08T10:06:35;101448.44;;;10.74;47.31
64886;BME280;51514;52.206;5.114;2024-03-08T10:09:01;101457.47;;;11.02;47.56
64886;BME280;51514;52.206;5.114;2024-03-08T10:11:28;101457.06;;;11.61;46.76
64886;BME280;51514;52.206;5.114;2024-03-08T10:13:55;101448.97;;;12.06;45.46
64886;BME280;51514;52.206;5.114;2024-03-08T10:16:20;101441.97;;;12.31;44.61
64886;BME280;51514;52.206;5.114;2024-03-08T10:18:46;101442.41;;;12.26;44.79
64886;BME280;51514;52.206;5.114;2024-03-08T10:21:12;101436.75;;;12.37;44.56
64886;BME280;51514;52.206;5.114;2024-03-08T10:23:39;101433.50;;;12.52;43.73
64886;BME280;51514;52.206;5.114;2024-03-08T10:26:17;101427.97;;;12.18;44.19
64886;BME280;51514;52.206;5.114;2024-03-08T10:28:45;101420.44;;;12.47;44.11
64886;BME280;51514;52.206;5.114;2024-03-08T10:31:13;101420.22;;;12.40;44.69
64886;BME280;51514;52.206;5.114;2024-03-08T10:33:40;101414.34;;;12.45;44.14
64886;BME280;51514;52.206;5.114;2024-03-08T10:36:07;101409.06;;;11.55;44.89
64886;BME280;51514;52.206;5.114;2024-03-08T10:38:36;101405.44;;;12.09;44.77
64886;BME280;51514;52.206;5.114;2024-03-08T10:41:03;101397.00;;;12.30;44.52
64886;BME280;51514;52.206;5.114;2024-03-08T10:43:32;101390.75;;;12.55;44.34
64886;BME280;51514;52.206;5.114;2024-03-08T10:46:38;101376.41;;;13.14;42.54
64886;BME280;51514;52.206;5.114;2024-03-08T10:49:12;101363.69;;;13.49;41.86
64886;BME280;51514;52.206;5.114;2024-03-08T10:51:42;101366.16;;;13.93;42.05
64886;BME280;51514;52.206;5.114;2024-03-08T10:54:09;101362.72;;;13.16;41.45
64886;BME280;51514;52.206;5.114;2024-03-08T10:56:35;101349.97;;;13.50;42.37
64886;BME280;51514;52.206;5.114;2024-03-08T10:59:01;101348.19;;;13.25;41.91
64886;BME280;51514;52.206;5.114;2024-03-08T11:01:29;101336.09;;;12.77;42.70
64886;BME280;51514;52.206;5.114;2024-03-08T11:03:55;101349.88;;;13.18;42.14
64886;BME280;51514;52.206;5.114;2024-03-08T11:09:02;101339.00;;;12.76;43.68
64886;BME280;51514;52.206;5.114;2024-03-08T11:11:32;101328.22;;;13.26;42.14
64886;BME280;51514;52.206;5.114;2024-03-08T11:14:00;101337.25;;;13.09;42.51
64886;BME280;51514;52.206;5.114;2024-03-08T11:19:00;101318.34;;;12.49;43.09
64886;BME280;51514;52.206;5.114;2024-03-08T11:21:32;101314.81;;;12.83;41.39
64886;BME280;51514;52.206;5.114;2024-03-08T11:24:14;101315.13;;;12.79;42.42
64886;BME280;51514;52.206;5.114;2024-03-08T11:26:40;101297.34;;;13.11;42.44
64886;BME280;51514;52.206;5.114;2024-03-08T11:31:52;101295.56;;;12.26;43.75
64886;BME280;51514;52.206;5.114;2024-03-08T11:34:29;101286.44;;;11.83;44.76
64886;BME280;51514;52.206;5.114;2024-03-08T11:36:55;101287.69;;;12.32;43.88
64886;BME280;51514;52.206;5.114;2024-03-08T11:39:22;101271.59;;;12.31;43.86
64886;BME280;51514;52.206;5.114;2024-03-08T11:41:49;101268.84;;;12.57;43.72
64886;BME280;51514;52.206;5.114;2024-03-08T11:44:14;101258.28;;;12.37;45.38
64886;BME280;51514;52.206;5.114;2024-03-08T11:46:42;101250.66;;;12.33;44.33
64886;BME280;51514;52.206;5.114;2024-03-08T11:49:12;101253.06;;;12.44;43.53
64886;BME280;51514;52.206;5.114;2024-03-08T11:51:38;101245.16;;;12.17;43.98
64886;BME280;51514;52.206;5.114;2024-03-08T11:54:03;101231.31;;;11.94;44.37
64886;BME280;51514;52.206;5.114;2024-03-08T11:56:29;101232.22;;;11.77;45.21
64886;BME280;51514;52.206;5.114;2024-03-08T11:58:55;101223.63;;;11.63;45.29
64886;BME280;51514;52.206;5.114;2024-03-08T12:01:22;101237.22;;;11.54;46.35
64886;BME280;51514;52.206;5.114;2024-03-08T12:03:57;101208.66;;;11.16;46.81
64886;BME280;51514;52.206;5.114;2024-03-08T12:06:27;101223.72;;;11.18;46.72
64886;BME280;51514;52.206;5.114;2024-03-08T12:09:02;101202.34;;;11.25;46.31
64886;BME280;51514;52.206;5.114;2024-03-08T12:11:27;101212.66;;;10.94;46.82
64886;BME280;51514;52.206;5.114;2024-03-08T12:13:53;101208.66;;;10.98;46.73
64886;BME280;51514;52.206;5.114;2024-03-08T12:16:19;101206.50;;;11.02;46.46
64886;BME280;51514;52.206;5.114;2024-03-08T12:18:46;101189.63;;;11.17;45.22
64886;BME280;51514;52.206;5.114;2024-03-08T12:21:13;101202.81;;;11.20;47.22
64886;BME280;51514;52.206;5.114;2024-03-08T12:23:42;101195.63;;;11.29;45.57
64886;BME280;51514;52.206;5.114;2024-03-08T12:26:17;101180.44;;;11.46;46.87
64886;BME280;51514;52.206;5.114;2024-03-08T12:28:44;101183.19;;;11.54;45.17
64886;BME280;51514;52.206;5.114;2024-03-08T12:31:12;101167.84;;;11.54;44.21
64886;BME280;51514;52.206;5.114;2024-03-08T12:33:50;101179.41;;;11.64;45.83
64886;BME280;51514;52.206;5.114;2024-03-08T12:36:16;101169.22;;;11.76;46.49
64886;BME280;51514;52.206;5.114;2024-03-08T12:38:47;101162.97;;;11.58;44.57
64886;BME280;51514;52.206;5.114;2024-03-08T12:41:17;101181.59;;;11.69;44.41
64886;BME280;51514;52.206;5.114;2024-03-08T12:43:46;101174.91;;;11.73;44.37
64886;BME280;51514;52.206;5.114;2024-03-08T12:46:22;101154.00;;;11.57;44.69
64886;BME280;51514;52.206;5.114;2024-03-08T12:48:51;101165.41;;;11.69;44.44
64886;BME280;51514;52.206;5.114;2024-03-08T12:51:19;101151.38;;;11.65;44.37
64886;BME280;51514;52.206;5.114;2024-03-08T12:53:45;101142.38;;;11.57;44.68
64886;BME280;51514;52.206;5.114;2024-03-08T12:56:31;101149.44;;;11.58;44.46
64886;BME280;51514;52.206;5.114;2024-03-08T12:58:58;101142.28;;;11.66;44.80
64886;BME280;51514;52.206;5.114;2024-03-08T13:01:23;101142.59;;;11.63;44.34
64886;BME280;51514;52.206;5.114;2024-03-08T13:03:49;101142.38;;;11.57;44.64
64886;BME280;51514;52.206;5.114;2024-03-08T13:06:18;101137.50;;;11.60;44.42